Time;durP1;ratioP1;P1;durP2;ratioP2;P2;SDS_P1;SDS_P2;PMS_P1;PMS_P2;Temp;Humidity;BMP_temperature;BMP_pressure;BME280_temperature;BME280_humidity;BME280_pressure;Samples;Min_cycle;Max_cycle;Signal;HPM_P1;HPM_P2
2023/01/14 00:00:18;;;;;;;3.43;1.70;;;7.20;99.90;;;;;;5085517;28;20640;-72
2023/01/14 00:02:43;;;;;;;3.50;1.57;;;7.20;99.90;;;;;;5081224;28;20215;-72
2023/01/14 00:05:10;;;;;;;7.97;1.53;;;7.20;99.90;;;;;;5091021;28;20539;-72
2023/01/14 00:07:35;;;;;;;1.77;1.10;;;6.90;99.90;;;;;;5072546;28;20222;-72
2023/01/14 00:10:01;;;;;;;2.77;0.93;;;6.90;99.90;;;;;;5089184;28;20842;-73
2023/01/14 00:12:27;;;;;;;2.87;1.20;;;6.90;99.90;;;;;;5065700;28;20231;-72
2023/01/14 00:14:52;;;;;;;2.60;1.20;;;7.00;99.90;;;;;;5066426;28;20222;-72
2023/01/14 00:17:18;;;;;;;2.37;1.20;;;6.90;99.90;;;;;;5071823;28;20219;-72
2023/01/14 00:19:44;;;;;;;2.10;1.07;;;6.90;99.90;;;;;;5100417;28;20589;-72
2023/01/14 00:22:10;;;;;;;2.80;1.10;;;6.80;99.90;;;;;;5086863;28;20445;-73
2023/01/14 00:24:35;;;;;;;2.90;1.80;;;6.80;99.90;;;;;;5088815;28;20230;-73
2023/01/14 00:27:01;;;;;;;1.40;1.30;;;6.80;99.90;;;;;;5087338;28;20223;-71
2023/01/14 00:29:32;;;;;;;2.40;1.23;;;6.80;99.90;;;;;;5076025;28;20234;-73
2023/01/14 00:32:00;;;;;;;3.90;1.00;;;6.80;99.90;;;;;;5107499;27;20226;-72
2023/01/14 00:34:28;;;;;;;2.53;1.17;;;6.80;99.90;;;;;;5086199;28;20460;-72
2023/01/14 00:36:54;;;;;;;9.23;2.00;;;6.90;99.90;;;;;;5071386;28;20479;-72
2023/01/14 00:39:20;;;;;;;2.47;1.27;;;6.90;99.90;;;;;;5088583;28;20468;-72
2023/01/14 00:41:46;;;;;;;4.67;1.53;;;7.00;99.90;;;;;;5090727;28;20460;-72
2023/01/14 00:44:13;;;;;;;5.40;1.60;;;6.90;99.90;;;;;;5085339;28;20459;-72
2023/01/14 00:46:40;;;;;;;5.60;1.10;;;6.90;99.90;;;;;;5088133;28;21035;-72
2023/01/14 00:49:09;;;;;;;5.40;1.50;;;6.90;99.90;;;;;;5071255;28;20449;-72
2023/01/14 00:51:35;;;;;;;7.10;1.50;;;6.90;99.90;;;;;;5100311;28;20457;-72
2023/01/14 00:54:02;;;;;;;4.23;1.20;;;6.70;99.90;;;;;;5061010;28;20471;-72
2023/01/14 00:56:28;;;;;;;7.13;1.87;;;6.60;99.90;;;;;;5071550;28;20207;-73
2023/01/14 00:58:54;;;;;;;3.33;1.53;;;6.50;99.90;;;;;;5087561;28;20507;-71
2023/01/14 01:01:20;;;;;;;3.90;2.00;;;6.40;99.90;;;;;;5071744;28;20556;-71
2023/01/14 01:03:51;;;;;;;2.93;1.40;;;6.40;99.90;;;;;;5089135;28;20520;-71
2023/01/14 01:06:19;;;;;;;5.23;2.17;;;6.30;99.90;;;;;;5086186;28;20246;-72
2023/01/14 01:08:45;;;;;;;3.50;1.50;;;6.30;99.90;;;;;;5071645;28;20451;-72
2023/01/14 01:11:14;;;;;;;12.47;2.53;;;6.30;99.90;;;;;;5087691;28;20857;-72
2023/01/14 01:13:40;;;;;;;6.63;1.60;;;6.30;99.90;;;;;;5087991;28;20485;-72
2023/01/14 01:16:10;;;;;;;5.97;1.53;;;6.30;99.90;;;;;;5077551;28;20459;-72
2023/01/14 01:18:36;;;;;;;8.33;2.13;;;6.30;99.90;;;;;;5074946;28;20501;-72
2023/01/14 01:21:07;;;;;;;5.27;2.13;;;6.20;99.90;;;;;;5089757;28;20472;-72
2023/01/14 01:23:33;;;;;;;2.20;1.87;;;6.20;99.90;;;;;;5071187;28;20457;-72
2023/01/14 01:26:01;;;;;;;6.97;2.43;;;6.30;99.90;;;;;;5082000;28;20440;-72
2023/01/14 01:28:27;;;;;;;3.23;0.80;;;6.30;99.90;;;;;;5071200;28;20552;-71
2023/01/14 01:30:52;;;;;;;4.10;1.20;;;6.40;99.90;;;;;;5077176;28;20541;-73
2023/01/14 01:33:18;;;;;;;4.80;1.57;;;6.50;99.90;;;;;;5060628;28;20465;-71
2023/01/14 01:35:44;;;;;;;5.53;2.17;;;6.60;99.90;;;;;;5074547;28;20220;-72
2023/01/14 01:38:10;;;;;;;4.27;1.60;;;6.60;99.90;;;;;;5071698;28;20310;-72
2023/01/14 01:40:35;;;;;;;8.80;1.47;;;6.60;99.90;;;;;;5063107;28;20231;-72
2023/01/14 01:43:01;;;;;;;7.60;1.23;;;6.50;99.90;;;;;;5053029;28;20226;-71
2023/01/14 01:45:47;;;;;;;5.60;1.80;;;6.40;99.90;;;;;;5079156;28;20298;-72
2023/01/14 01:48:21;;;;;;;12.83;1.57;;;6.30;99.90;;;;;;5070936;28;20480;-72
2023/01/14 01:51:02;;;;;;;2.40;1.20;;;6.30;99.90;;;;;;5076527;28;20491;-72
2023/01/14 01:53:28;;;;;;;2.30;1.30;;;6.20;99.90;;;;;;5071371;28;20472;-72
2023/01/14 01:55:56;;;;;;;5.57;2.03;;;6.10;99.90;;;;;;5088073;28;20456;-72
2023/01/14 01:58:23;;;;;;;4.50;1.80;;;6.10;99.90;;;;;;5060317;28;20489;-72
2023/01/14 02:00:49;;;;;;;2.40;1.43;;;6.00;99.90;;;;;;5076080;28;21015;-72
2023/01/14 02:03:26;;;;;;;2.53;1.30;;;6.00;99.90;;;;;;5076289;28;20448;-72
2023/01/14 02:05:52;;;;;;;5.33;1.90;;;6.00;99.90;;;;;;5087936;28;20305;-72
2023/01/14 02:08:18;;;;;;;2.97;1.80;;;6.00;99.90;;;;;;5070813;28;20449;-72
2023/01/14 02:11:06;;;;;;;7.20;1.87;;;6.00;99.90;;;;;;5071075;28;20578;-71
2023/01/14 02:13:58;;;;;;;4.37;1.60;;;6.10;99.90;;;;;;5067182;28;22499;-72
2023/01/14 02:16:49;;;;;;;1.77;1.47;;;6.00;99.90;;;;;;5058559;28;20449;-72
2023/01/14 02:19:41;;;;;;;5.63;1.70;;;6.10;99.90;;;;;;5063647;28;20451;-72
2023/01/14 02:22:34;;;;;;;3.10;1.83;;;6.10;99.90;;;;;;5063667;28;20452;-72
2023/01/14 02:25:15;;;;;;;5.93;1.20;;;6.10;99.90;;;;;;5079893;28;20445;-71
2023/01/14 02:27:51;;;;;;;5.70;1.87;;;6.10;99.90;;;;;;5083850;28;20581;-71
2023/01/14 02:30:26;;;;;;;3.33;1.37;;;6.10;99.90;;;;;;5091486;28;20449;-72
2023/01/14 02:33:17;;;;;;;2.20;1.33;;;6.10;99.90;;;;;;5101259;28;20468;-72
2023/01/14 02:35:47;;;;;;;4.83;1.77;;;6.10;99.90;;;;;;5041143;28;20454;-72
2023/01/14 02:38:25;;;;;;;7.70;2.20;;;6.10;99.90;;;;;;5069495;28;20424;-72
2023/01/14 02:41:01;;;;;;;6.37;1.70;;;6.20;99.90;;;;;;5069476;28;20484;-72
2023/01/14 02:46:29;;;;;;;6.40;1.70;;;6.10;99.90;;;;;;5080822;28;20457;-72
2023/01/14 02:48:56;;;;;;;10.37;2.03;;;6.00;99.90;;;;;;5058214;28;20508;-71
2023/01/14 02:51:23;;;;;;;1.83;1.57;;;6.00;99.90;;;;;;5071857;28;20481;-72
2023/01/14 02:53:48;;;;;;;5.10;1.50;;;6.00;99.90;;;;;;5086064;28;20553;-72
2023/01/14 02:56:15;;;;;;;7.63;1.63;;;6.00;99.90;;;;;;5070172;28;20453;-72
2023/01/14 02:59:14;;;;;;;3.27;1.50;;;6.00;99.90;;;;;;5082669;28;20453;-72
2023/01/14 03:02:07;;;;;;;2.87;1.50;;;6.10;99.90;;;;;;5039190;28;20456;-71
2023/01/14 03:05:14;;;;;;;7.63;1.90;;;6.10;99.90;;;;;;5049348;28;20519;-72
2023/01/14 03:08:03;;;;;;;4.93;1.93;;;6.20;99.90;;;;;;4993591;28;20447;-72
2023/01/14 03:10:53;;;;;;;5.73;2.17;;;6.30;99.90;;;;;;4988593;28;21056;-71
2023/01/14 03:13:25;;;;;;;6.63;1.47;;;6.20;99.90;;;;;;5066105;28;20461;-72
2023/01/14 03:16:03;;;;;;;4.40;1.30;;;6.10;99.90;;;;;;5090846;28;20449;-71
2023/01/14 03:18:59;;;;;;;10.83;1.40;;;6.00;99.90;;;;;;5098693;28;20448;-72
2023/01/14 03:21:30;;;;;;;3.20;1.50;;;6.10;99.90;;;;;;5084784;28;20502;-72
2023/01/14 03:24:05;;;;;;;5.03;1.37;;;6.00;99.90;;;;;;5059844;28;20483;-72
2023/01/14 03:26:35;;;;;;;2.77;1.43;;;6.00;99.90;;;;;;5078789;28;20960;-73
2023/01/14 03:29:08;;;;;;;6.30;1.40;;;6.10;99.90;;;;;;5054926;28;20449;-72
2023/01/14 03:31:39;;;;;;;2.57;1.20;;;6.00;99.90;;;;;;5073402;28;20487;-72
2023/01/14 03:34:14;;;;;;;6.67;1.67;;;6.00;99.90;;;;;;5073042;28;20513;-72
2023/01/14 03:36:42;;;;;;;8.97;1.93;;;6.10;99.90;;;;;;5083445;28;20481;-72
2023/01/14 03:39:13;;;;;;;18.70;2.60;;;6.00;99.90;;;;;;5090483;28;20498;-72
2023/01/14 03:44:37;;;;;;;2.30;1.37;;;6.20;99.90;;;;;;5088406;28;20513;-73
2023/01/14 03:47:03;;;;;;;3.00;1.10;;;6.20;99.90;;;;;;5090148;28;20457;-72
2023/01/14 03:49:29;;;;;;;5.00;1.67;;;6.30;99.90;;;;;;5083819;28;20458;-73
2023/01/14 03:52:05;;;;;;;4.03;1.73;;;6.30;99.90;;;;;;5082625;28;20464;-72
2023/01/14 03:54:53;;;;;;;7.07;1.47;;;6.30;99.90;;;;;;5062237;28;20678;-72
2023/01/14 03:57:26;;;;;;;6.13;1.80;;;6.30;99.90;;;;;;5048070;28;20529;-73
2023/01/14 03:59:57;;;;;;;6.90;2.07;;;6.30;99.90;;;;;;5072972;28;20449;-73
2023/01/14 04:02:24;;;;;;;3.00;2.00;;;6.30;99.90;;;;;;5068770;28;20469;-72
2023/01/14 04:04:51;;;;;;;3.23;1.93;;;6.30;99.90;;;;;;5076029;28;20453;-71
2023/01/14 04:07:17;;;;;;;3.97;2.13;;;6.40;99.90;;;;;;5084975;28;20460;-72
2023/01/14 04:09:43;;;;;;;9.77;2.30;;;6.40;99.90;;;;;;5083304;28;20988;-72
2023/01/14 04:12:09;;;;;;;6.23;2.00;;;6.40;99.90;;;;;;5076731;28;20218;-72
2023/01/14 04:17:19;;;;;;;4.23;1.57;;;6.40;99.90;;;;;;5081374;28;20230;-72
2023/01/14 04:19:44;;;;;;;8.63;1.57;;;6.40;99.90;;;;;;5079063;28;20457;-73
2023/01/14 04:22:10;;;;;;;4.90;1.83;;;6.30;99.90;;;;;;5068872;28;20211;-72
2023/01/14 04:24:36;;;;;;;4.73;1.33;;;6.40;99.90;;;;;;5068362;28;20230;-72
2023/01/14 04:27:01;;;;;;;7.57;2.13;;;6.40;99.90;;;;;;5069188;28;20227;-72
2023/01/14 04:29:27;;;;;;;8.43;2.33;;;6.40;99.90;;;;;;5079247;28;20229;-73
2023/01/14 04:31:53;;;;;;;8.10;1.27;;;6.40;99.90;;;;;;5094764;28;20702;-72
2023/01/14 04:34:18;;;;;;;4.30;2.17;;;6.30;99.90;;;;;;5088397;28;20238;-73
2023/01/14 04:36:44;;;;;;;4.97;1.67;;;6.30;99.90;;;;;;5090722;28;20214;-72
2023/01/14 04:39:10;;;;;;;3.43;1.70;;;6.30;99.90;;;;;;5088716;28;20241;-72
2023/01/14 04:44:19;;;;;;;5.30;1.83;;;6.30;99.90;;;;;;5084436;28;20211;-72
2023/01/14 04:46:45;;;;;;;4.33;1.90;;;6.30;99.90;;;;;;5071391;28;20440;-72
2023/01/14 04:49:11;;;;;;;5.20;2.30;;;6.30;99.90;;;;;;5068209;28;20263;-72
2023/01/14 04:51:36;;;;;;;4.53;1.80;;;6.40;99.90;;;;;;5107624;28;20313;-73
2023/01/14 04:54:03;;;;;;;3.10;1.40;;;6.40;99.90;;;;;;5088418;28;20242;-73
2023/01/14 04:56:29;;;;;;;7.73;2.40;;;6.40;99.90;;;;;;5081345;28;20487;-72
2023/01/14 04:58:54;;;;;;;3.67;1.57;;;6.40;99.90;;;;;;5089161;28;20210;-71
2023/01/14 05:01:20;;;;;;;6.80;1.43;;;6.40;99.90;;;;;;5097486;28;20240;-72
2023/01/14 05:03:46;;;;;;;3.97;1.60;;;6.40;99.90;;;;;;5068617;28;20559;-73
2023/01/14 05:06:11;;;;;;;4.93;1.97;;;6.40;99.90;;;;;;5105933;28;20679;-73
2023/01/14 05:08:37;;;;;;;5.63;1.60;;;6.40;99.90;;;;;;5088272;28;20214;-72
2023/01/14 05:11:03;;;;;;;10.03;3.30;;;6.40;99.90;;;;;;5092323;28;20214;-73
2023/01/14 05:13:29;;;;;;;2.13;1.60;;;6.40;99.90;;;;;;5091760;28;20250;-72
2023/01/14 05:16:01;;;;;;;6.90;2.63;;;6.40;99.90;;;;;;5078444;28;20289;-73
2023/01/14 05:18:27;;;;;;;5.13;2.03;;;6.40;99.90;;;;;;5044942;28;20692;-73
2023/01/14 05:20:53;;;;;;;2.93;1.30;;;6.40;99.90;;;;;;5067680;28;20468;-72
2023/01/14 05:23:19;;;;;;;4.00;2.13;;;6.40;99.90;;;;;;5060012;28;20228;-72
2023/01/14 05:25:45;;;;;;;5.83;1.70;;;6.40;99.90;;;;;;5068659;28;20328;-72
2023/01/14 05:28:13;;;;;;;5.30;2.00;;;6.30;99.90;;;;;;5068672;28;20465;-72
2023/01/14 05:30:39;;;;;;;10.07;2.27;;;6.30;99.90;;;;;;5051646;28;20458;-73
2023/01/14 05:33:06;;;;;;;4.43;2.33;;;6.40;99.90;;;;;;5071617;28;20465;-72
2023/01/14 05:35:32;;;;;;;1.77;1.30;;;6.30;99.90;;;;;;5069623;28;20453;-73
2023/01/14 05:37:59;;;;;;;2.53;1.53;;;6.30;99.90;;;;;;5067767;28;20461;-73
2023/01/14 05:40:24;;;;;;;4.40;1.67;;;6.30;99.90;;;;;;5068196;28;20480;-72
2023/01/14 05:45:51;;;;;;;2.87;1.67;;;6.30;99.90;;;;;;5022206;28;20577;-69
2023/01/14 05:48:21;;;;;;;3.33;1.70;;;6.30;99.90;;;;;;5055783;28;20923;-72
2023/01/14 05:50:56;;;;;;;5.93;1.63;;;6.30;99.90;;;;;;5073888;28;20227;-72
2023/01/14 05:53:23;;;;;;;5.03;1.97;;;6.30;99.90;;;;;;5088717;28;20469;-72
2023/01/14 05:55:50;;;;;;;8.63;2.00;;;6.20;99.90;;;;;;5090185;28;21010;-72
2023/01/14 05:58:17;;;;;;;4.17;2.20;;;6.20;99.90;;;;;;5098018;27;20447;-72
2023/01/14 06:06:23;;;;;;;3.87;2.03;;;6.20;99.90;;;;;;5092422;28;20880;-72
2023/01/14 06:08:53;;;;;;;3.00;2.13;;;6.30;99.90;;;;;;5085307;28;20547;-72
2023/01/14 06:11:20;;;;;;;12.77;2.57;;;6.30;99.90;;;;;;5091298;28;20535;-72
2023/01/14 06:13:48;;;;;;;3.30;1.93;;;6.40;99.90;;;;;;5101323;28;20469;-72
2023/01/14 06:16:14;;;;;;;3.60;1.73;;;6.40;99.90;;;;;;5071217;28;20465;-72
2023/01/14 06:18:42;;;;;;;5.30;1.73;;;6.40;99.90;;;;;;5091896;28;20960;-72
2023/01/14 06:21:15;;;;;;;10.20;2.63;;;6.40;99.90;;;;;;5053578;28;20840;-71
2023/01/14 06:23:40;;;;;;;4.60;2.00;;;6.30;99.90;;;;;;5064728;28;20475;-72
2023/01/14 06:26:12;;;;;;;2.93;2.63;;;6.30;99.90;;;;;;5091912;28;20940;-72
2023/01/14 06:28:38;;;;;;;2.93;1.93;;;6.30;99.90;;;;;;5090253;28;20218;-72
2023/01/14 06:31:15;;;;;;;6.90;2.87;;;6.30;99.90;;;;;;5087182;28;20494;-72
2023/01/14 06:33:42;;;;;;;6.77;2.20;;;6.20;99.90;;;;;;5076843;28;20462;-72
2023/01/14 06:36:09;;;;;;;7.97;2.73;;;6.20;99.90;;;;;;5042947;28;20958;-72
2023/01/14 06:38:36;;;;;;;8.37;3.40;;;6.30;99.90;;;;;;5073731;28;20469;-72
2023/01/14 06:41:03;;;;;;;3.07;2.30;;;6.20;99.90;;;;;;5072950;28;20476;-72
2023/01/14 06:43:30;;;;;;;3.30;1.90;;;6.20;99.90;;;;;;5073839;28;20453;-72
2023/01/14 06:45:56;;;;;;;5.37;2.47;;;6.20;99.90;;;;;;5057217;28;20523;-73
2023/01/14 06:48:24;;;;;;;3.27;2.43;;;6.20;99.90;;;;;;5072536;28;20464;-73
2023/01/14 06:50:50;;;;;;;5.97;2.00;;;6.20;99.90;;;;;;5086623;28;20492;-72
2023/01/14 06:53:16;;;;;;;5.30;2.10;;;6.20;99.90;;;;;;5085754;28;20468;-73
2023/01/14 06:55:42;;;;;;;4.83;2.37;;;6.20;99.90;;;;;;5067345;28;20453;-72
2023/01/14 06:58:08;;;;;;;5.17;1.93;;;6.20;99.90;;;;;;5091574;28;20482;-73
2023/01/14 07:00:34;;;;;;;3.40;2.30;;;6.30;99.90;;;;;;5073430;28;20450;-72
2023/01/14 07:03:00;;;;;;;5.17;2.67;;;6.30;99.90;;;;;;5091449;28;20823;-72
2023/01/14 07:05:26;;;;;;;3.23;2.10;;;6.20;99.90;;;;;;5101954;28;20464;-72
2023/01/14 07:07:52;;;;;;;5.67;2.90;;;6.20;99.90;;;;;;5089642;28;20226;-72
2023/01/14 07:10:18;;;;;;;2.83;1.87;;;6.20;99.90;;;;;;5090529;28;20272;-73
2023/01/14 07:12:51;;;;;;;6.03;2.47;;;6.20;99.90;;;;;;5086434;28;20461;-72
2023/01/14 07:15:19;;;;;;;3.20;2.10;;;6.20;99.90;;;;;;5087874;28;20444;-72
2023/01/14 07:17:46;;;;;;;2.83;2.00;;;6.20;99.90;;;;;;5073038;28;20503;-72
2023/01/14 07:20:12;;;;;;;11.50;2.40;;;6.30;99.90;;;;;;5083555;28;20491;-72
2023/01/14 07:22:38;;;;;;;3.90;2.57;;;6.20;99.90;;;;;;5070936;28;20446;-72
2023/01/14 07:25:05;;;;;;;12.77;2.70;;;6.20;99.90;;;;;;5077023;28;20453;-72
2023/01/14 07:27:30;;;;;;;7.87;2.37;;;6.20;99.90;;;;;;5073398;28;20222;-72
2023/01/14 07:29:57;;;;;;;7.17;2.47;;;6.30;99.90;;;;;;5082147;28;20485;-73
2023/01/14 07:32:23;;;;;;;3.87;1.60;;;6.20;99.90;;;;;;5081103;28;20211;-73
2023/01/14 07:34:50;;;;;;;5.30;1.97;;;6.20;99.90;;;;;;5080036;28;20874;-72
2023/01/14 07:37:16;;;;;;;3.27;1.90;;;6.30;99.90;;;;;;5069939;28;20446;-73
2023/01/14 07:39:41;;;;;;;4.80;2.17;;;6.30;99.90;;;;;;5063848;28;20449;-72
2023/01/14 07:42:07;;;;;;;5.20;1.60;;;6.20;99.90;;;;;;5071570;28;20458;-73
2023/01/14 07:44:32;;;;;;;4.33;1.87;;;6.30;99.90;;;;;;5069757;28;20272;-72
2023/01/14 07:46:58;;;;;;;2.73;1.80;;;6.30;99.90;;;;;;5066028;28;20216;-72
2023/01/14 07:49:25;;;;;;;3.23;1.30;;;6.30;99.90;;;;;;5069359;28;20214;-72
2023/01/14 07:51:51;;;;;;;12.63;2.50;;;6.40;99.90;;;;;;5075394;28;20227;-72
2023/01/14 07:54:18;;;;;;;4.50;1.83;;;6.40;99.90;;;;;;5078613;28;20466;-72
2023/01/14 07:56:44;;;;;;;1.70;1.60;;;6.30;99.90;;;;;;5069560;28;20448;-72
2023/01/14 07:59:10;;;;;;;8.03;1.97;;;6.30;99.90;;;;;;5069002;28;20471;-73
2023/01/14 08:01:36;;;;;;;4.03;1.40;;;6.30;99.90;;;;;;5070180;28;20449;-73
2023/01/14 08:04:02;;;;;;;4.83;1.50;;;6.30;99.90;;;;;;5052951;28;20472;-73
2023/01/14 08:06:29;;;;;;;3.73;1.50;;;6.30;99.90;;;;;;5053057;28;20227;-72
2023/01/14 08:08:54;;;;;;;3.57;1.60;;;6.30;99.90;;;;;;5082177;28;20467;-72
2023/01/14 08:11:20;;;;;;;3.63;1.77;;;6.30;99.90;;;;;;5086444;28;20450;-72
2023/01/14 08:13:48;;;;;;;5.27;1.90;;;6.40;99.90;;;;;;5076230;28;20579;-71
2023/01/14 08:16:15;;;;;;;4.07;1.63;;;6.40;99.90;;;;;;5068310;28;20219;-72
2023/01/14 08:18:40;;;;;;;9.73;2.60;;;6.40;99.90;;;;;;5077155;28;20498;-72
2023/01/14 08:21:08;;;;;;;4.60;1.77;;;6.40;99.90;;;;;;5069150;28;20545;-72
2023/01/14 08:23:35;;;;;;;7.80;2.40;;;6.50;99.90;;;;;;5087508;28;20767;-72
2023/01/14 08:26:06;;;;;;;4.37;1.63;;;6.50;99.90;;;;;;5085896;28;21031;-71
2023/01/14 08:28:33;;;;;;;1.90;1.30;;;6.50;99.90;;;;;;5080979;28;20463;-72
2023/01/14 08:31:13;;;;;;;5.23;1.80;;;6.50;99.90;;;;;;5081849;28;20454;-73
2023/01/14 08:33:40;;;;;;;5.27;1.90;;;6.50;99.90;;;;;;5066537;28;20461;-72
2023/01/14 08:36:09;;;;;;;7.40;1.43;;;6.50;99.90;;;;;;5069111;28;20458;-72
2023/01/14 08:38:37;;;;;;;4.30;1.60;;;6.50;99.90;;;;;;5062160;28;20454;-72
2023/01/14 08:41:08;;;;;;;1.73;0.97;;;6.50;99.90;;;;;;5058220;28;20448;-73
2023/01/14 08:43:33;;;;;;;3.00;1.13;;;6.50;99.90;;;;;;5085826;28;20441;-72
2023/01/14 08:46:01;;;;;;;8.37;1.80;;;6.50;99.90;;;;;;5079874;28;20450;-72
2023/01/14 08:48:27;;;;;;;2.60;1.50;;;6.50;99.90;;;;;;5073827;28;20214;-74
2023/01/14 08:50:53;;;;;;;5.23;1.57;;;6.50;99.90;;;;;;5095159;28;20464;-73
2023/01/14 08:53:19;;;;;;;4.07;1.53;;;6.50;99.90;;;;;;5112049;27;20456;-73
2023/01/14 08:55:44;;;;;;;2.87;1.93;;;6.50;99.90;;;;;;5089681;28;20679;-72
2023/01/14 08:58:10;;;;;;;2.33;1.80;;;6.60;99.90;;;;;;5073573;28;20259;-72
2023/01/14 09:00:36;;;;;;;9.43;1.87;;;6.60;99.90;;;;;;5073024;28;20306;-73
2023/01/14 09:03:02;;;;;;;2.70;1.40;;;6.60;99.90;;;;;;5074999;28;20311;-72
2023/01/14 09:05:30;;;;;;;4.00;1.23;;;6.60;99.90;;;;;;5069753;28;20234;-73
2023/01/14 09:19:01;;;;;;;5.47;1.80;;;6.70;99.90;;;;;;5056133;28;20507;-72
2023/01/14 09:21:27;;;;;;;6.13;1.50;;;6.80;99.90;;;;;;5072188;28;20461;-73
2023/01/14 09:23:53;;;;;;;1.97;1.40;;;6.80;99.90;;;;;;5069382;28;20222;-74
2023/01/14 09:26:20;;;;;;;2.10;1.60;;;6.80;99.90;;;;;;5084877;28;20219;-72
2023/01/14 09:28:46;;;;;;;2.97;1.43;;;6.80;99.90;;;;;;5091093;28;20475;-72
2023/01/14 09:31:12;;;;;;;4.67;1.37;;;6.90;99.90;;;;;;5091341;28;20453;-71
2023/01/14 09:33:38;;;;;;;2.67;1.13;;;6.90;99.90;;;;;;5078457;28;20895;-73
2023/01/14 09:36:04;;;;;;;1.50;1.40;;;6.90;99.90;;;;;;5080451;28;20215;-72
2023/01/14 09:38:29;;;;;;;1.47;1.37;;;6.90;99.90;;;;;;5055760;28;20223;-73
2023/01/14 09:40:55;;;;;;;2.60;1.63;;;6.90;99.90;;;;;;5081299;28;20453;-72
2023/01/14 09:43:23;;;;;;;3.83;1.87;;;7.00;99.90;;;;;;5064660;28;20454;-72
2023/01/14 09:45:55;;;;;;;3.23;1.73;;;7.00;99.90;;;;;;5065296;28;20231;-72
2023/01/14 09:48:23;;;;;;;2.50;1.30;;;7.00;99.90;;;;;;5064880;28;20445;-72
2023/01/14 09:51:23;;;;;;;3.30;1.40;;;7.10;99.90;;;;;;5075291;28;20468;-73
2023/01/14 09:53:57;;;;;;;1.90;1.40;;;7.10;99.90;;;;;;5079988;28;20980;-72
2023/01/14 09:56:32;;;;;;;1.90;1.20;;;7.10;99.90;;;;;;5090538;28;20466;-72
2023/01/14 09:59:22;;;;;;;4.50;1.80;;;7.20;99.90;;;;;;5068783;28;20947;-71
2023/01/14 10:02:17;;;;;;;3.10;1.50;;;7.20;99.90;;;;;;5055857;28;20467;-74
2023/01/14 10:04:48;;;;;;;3.17;1.67;;;7.20;99.90;;;;;;5063307;28;20483;-72
2023/01/14 10:07:17;;;;;;;1.80;1.27;;;7.20;99.90;;;;;;5056816;28;20508;-72
2023/01/14 10:09:48;;;;;;;3.90;1.60;;;7.20;99.90;;;;;;5047659;28;20461;-72
2023/01/14 10:12:23;;;;;;;4.43;1.40;;;7.30;99.90;;;;;;5061642;28;20470;-72
2023/01/14 10:15:26;;;;;;;1.43;1.27;;;7.30;99.90;;;;;;5080452;28;20452;-73
2023/01/14 10:18:20;;;;;;;5.63;1.43;;;7.30;99.90;;;;;;5072938;28;20520;-73
2023/01/14 10:20:57;;;;;;;3.80;1.47;;;7.40;99.90;;;;;;5076552;28;20468;-70
2023/01/14 10:23:39;;;;;;;2.70;1.57;;;7.40;99.90;;;;;;5079952;28;20997;-72
2023/01/14 10:26:17;;;;;;;1.17;1.00;;;7.40;99.90;;;;;;5056682;28;20469;-72
2023/01/14 10:28:45;;;;;;;2.63;1.30;;;7.50;99.90;;;;;;5069263;28;20449;-72
2023/01/14 10:31:33;;;;;;;1.83;0.90;;;7.50;99.90;;;;;;5084796;28;20549;-73
2023/01/14 10:34:00;;;;;;;1.40;1.30;;;7.50;99.90;;;;;;5083220;28;20489;-73
2023/01/14 10:36:29;;;;;;;8.97;1.90;;;7.60;99.90;;;;;;5056198;28;20465;-72
2023/01/14 10:38:56;;;;;;;1.30;1.00;;;7.60;99.90;;;;;;5094300;28;20456;-72
2023/01/14 10:44:17;;;;;;;2.17;1.23;;;7.70;99.90;;;;;;5082338;28;21046;-73
2023/01/14 10:46:45;;;;;;;1.10;1.10;;;7.70;99.90;;;;;;5067759;28;20473;-72
2023/01/14 10:49:19;;;;;;;2.53;1.17;;;7.70;99.90;;;;;;5069181;28;20468;-73
2023/01/14 10:51:49;;;;;;;4.67;1.90;;;7.70;99.90;;;;;;5080267;28;20467;-73
2023/01/14 10:54:14;;;;;;;3.70;2.33;;;7.80;99.90;;;;;;5064704;28;20863;-74
2023/01/14 10:56:45;;;;;;;1.73;1.23;;;7.80;99.90;;;;;;5077353;28;20453;-72
2023/01/14 10:59:29;;;;;;;2.30;1.47;;;7.80;99.90;;;;;;5062826;28;20208;-72
2023/01/14 11:01:55;;;;;;;1.07;1.07;;;7.80;99.90;;;;;;5090195;28;20484;-72
2023/01/14 11:04:28;;;;;;;1.47;0.90;;;7.90;99.90;;;;;;5084382;28;20490;-72
2023/01/14 11:06:53;;;;;;;2.20;0.90;;;7.90;99.90;;;;;;5080604;28;20465;-72
2023/01/14 11:09:29;;;;;;;1.40;1.17;;;8.00;99.90;;;;;;5080245;28;20471;-72
2023/01/14 11:11:56;;;;;;;2.10;1.00;;;8.00;99.90;;;;;;5074923;28;20702;-72
2023/01/14 11:14:24;;;;;;;1.63;1.00;;;8.00;99.90;;;;;;5065127;28;20991;-73
2023/01/14 11:16:50;;;;;;;2.23;1.00;;;8.10;99.90;;;;;;5071322;28;20459;-73
2023/01/14 11:19:20;;;;;;;0.70;0.67;;;8.10;99.90;;;;;;5072964;28;20457;-71
2023/01/14 11:21:50;;;;;;;1.63;1.07;;;8.10;99.90;;;;;;5070794;28;20694;-73
2023/01/14 11:24:23;;;;;;;2.73;1.13;;;8.10;99.90;;;;;;5064140;28;20457;-73
2023/01/14 11:26:50;;;;;;;2.70;0.90;;;8.10;99.90;;;;;;5070083;28;20454;-73
2023/01/14 11:29:27;;;;;;;1.40;0.80;;;8.10;99.90;;;;;;5073559;28;20465;-73
2023/01/14 11:31:56;;;;;;;4.23;1.73;;;8.10;99.90;;;;;;5079329;28;20518;-73
2023/01/14 11:34:33;;;;;;;2.20;0.90;;;8.20;99.90;;;;;;5079824;28;21370;-73
2023/01/14 11:37:15;;;;;;;0.60;0.60;;;8.20;99.90;;;;;;5079526;28;20559;-73
2023/01/14 11:39:51;;;;;;;1.73;1.40;;;8.20;99.90;;;;;;5080740;28;20465;-73
2023/01/14 11:42:37;;;;;;;0.70;0.70;;;8.20;99.90;;;;;;5073541;28;20527;-73
2023/01/14 11:45:12;;;;;;;1.10;1.00;;;8.30;99.90;;;;;;5070243;28;20470;-72
2023/01/14 11:47:49;;;;;;;1.80;1.00;;;8.30;99.90;;;;;;5100242;28;20448;-72
2023/01/14 11:50:15;;;;;;;3.07;1.20;;;8.20;99.90;;;;;;5075470;28;20469;-73
2023/01/14 11:52:46;;;;;;;3.40;1.00;;;8.20;99.90;;;;;;5068115;28;21118;-73
2023/01/14 11:55:16;;;;;;;0.80;0.73;;;8.30;99.90;;;;;;5078034;28;20218;-72
2023/01/14 11:57:43;;;;;;;1.20;1.10;;;8.40;99.90;;;;;;5088353;28;20488;-72
2023/01/14 12:00:13;;;;;;;3.73;0.80;;;8.40;99.90;;;;;;5078914;28;20524;-73
2023/01/14 12:02:44;;;;;;;1.17;0.90;;;8.30;99.90;;;;;;5104022;27;20511;-72
2023/01/14 12:05:15;;;;;;;1.50;0.67;;;8.40;99.90;;;;;;5079373;28;20466;-73
2023/01/14 12:08:01;;;;;;;6.10;0.97;;;8.40;99.90;;;;;;5074151;28;20468;-73
2023/01/14 12:10:33;;;;;;;1.07;0.80;;;8.30;99.90;;;;;;5082791;28;20508;-73
2023/01/14 12:18:50;;;;;;;1.87;1.17;;;8.40;99.90;;;;;;5080936;28;20467;-72
2023/01/14 12:21:22;;;;;;;0.80;0.80;;;8.40;99.90;;;;;;5062756;28;20475;-73
2023/01/14 12:23:54;;;;;;;0.90;0.90;;;8.40;99.90;;;;;;5081182;28;20457;-72
2023/01/14 12:26:29;;;;;;;0.80;0.60;;;8.40;99.90;;;;;;5087822;28;20468;-73
2023/01/14 12:29:00;;;;;;;2.03;1.27;;;8.40;99.90;;;;;;5088794;28;20524;-72
2023/01/14 12:31:35;;;;;;;1.00;0.90;;;8.50;99.90;;;;;;5089112;28;20653;-74
2023/01/14 12:34:28;;;;;;;1.17;0.63;;;8.40;99.90;;;;;;5054711;28;20485;-73
2023/01/14 12:37:12;;;;;;;4.27;0.80;;;8.50;99.90;;;;;;5060608;28;21034;-74
2023/01/14 12:45:50;;;;;;;6.00;1.90;;;8.50;99.90;;;;;;5069127;28;20445;-72
2023/01/14 12:48:17;;;;;;;0.97;0.90;;;8.50;99.90;;;;;;5081114;28;20468;-73
2023/01/14 12:50:58;;;;;;;1.37;0.83;;;8.60;99.90;;;;;;5068989;28;20547;-72
2023/01/14 12:53:42;;;;;;;0.87;0.73;;;8.60;99.90;;;;;;5073098;28;20899;-73
2023/01/14 12:56:14;;;;;;;1.30;1.20;;;8.60;99.90;;;;;;5073864;28;21039;-73
2023/01/14 12:58:42;;;;;;;1.67;0.87;;;8.60;99.90;;;;;;5066311;28;20463;-73
2023/01/14 13:01:15;;;;;;;1.77;0.90;;;8.60;99.90;;;;;;5059218;28;20451;-73
2023/01/14 13:03:52;;;;;;;1.80;0.93;;;8.70;99.90;;;;;;5064064;28;20445;-72
2023/01/14 13:06:37;;;;;;;1.47;0.80;;;8.70;99.90;;;;;;5086052;28;20460;-74
2023/01/14 13:09:06;;;;;;;4.17;1.20;;;8.60;99.90;;;;;;5086374;28;20450;-72
2023/01/14 13:11:44;;;;;;;4.23;1.10;;;8.70;99.90;;;;;;5059778;28;20461;-73
2023/01/14 13:14:39;;;;;;;5.80;1.30;;;8.60;99.90;;;;;;5071238;28;20466;-73
2023/01/14 13:17:33;;;;;;;1.37;0.80;;;8.60;99.90;;;;;;5078193;28;20506;-72
2023/01/14 13:20:19;;;;;;;1.00;0.90;;;8.60;99.90;;;;;;5083241;28;20491;-73
2023/01/14 13:22:53;;;;;;;1.30;1.00;;;8.70;99.90;;;;;;5037416;28;20461;-73
2023/01/14 13:25:33;;;;;;;2.10;0.60;;;8.70;99.90;;;;;;5082341;28;20502;-73
2023/01/14 13:28:11;;;;;;;1.13;0.70;;;8.70;99.90;;;;;;5083765;28;20492;-72
2023/01/14 13:30:43;;;;;;;2.50;1.43;;;8.70;99.90;;;;;;5085367;28;20455;-73
2023/01/14 13:33:28;;;;;;;0.93;0.77;;;8.70;99.90;;;;;;5071956;28;20457;-73
2023/01/14 13:36:06;;;;;;;0.97;0.90;;;8.70;99.90;;;;;;5084059;28;21004;-72
2023/01/14 13:38:33;;;;;;;2.93;1.20;;;8.70;99.90;;;;;;5090552;28;20455;-73
2023/01/14 13:41:08;;;;;;;1.40;0.90;;;8.70;99.90;;;;;;5088379;28;20488;-72
2023/01/14 13:43:45;;;;;;;2.30;1.37;;;8.70;99.90;;;;;;5067194;28;20458;-73
2023/01/14 13:46:46;;;;;;;0.90;0.90;;;8.70;99.90;;;;;;5081295;28;20468;-73
2023/01/14 13:49:40;;;;;;;1.27;1.13;;;8.70;99.90;;;;;;5072017;28;20459;-72
2023/01/14 13:52:22;;;;;;;2.70;1.20;;;8.70;99.90;;;;;;5069614;28;20463;-73
2023/01/14 13:54:56;;;;;;;0.80;0.80;;;8.70;99.90;;;;;;5059196;28;20815;-72
2023/01/14 13:57:36;;;;;;;8.40;1.20;;;8.70;99.90;;;;;;5067472;28;20453;-72
2023/01/14 14:00:26;;;;;;;5.63;1.53;;;8.70;99.90;;;;;;5050848;28;20460;-72
2023/01/14 14:02:53;;;;;;;0.93;0.83;;;8.70;99.90;;;;;;5087711;28;20441;-71